createdAt,value
2022-10-29T00:00:52.089Z,98842.09
2022-10-29T00:03:20.960Z,98839.88
2022-10-29T00:05:59.406Z,98839.41
2022-10-29T00:08:29.900Z,98836.16
2022-10-29T00:11:04.831Z,98832.34
2022-10-29T00:13:32.542Z,98839.41
2022-10-29T00:16:00.463Z,98834.19
2022-10-29T00:18:30.700Z,98837.19
2022-10-29T00:21:01.517Z,98831.81
2022-10-29T00:23:30.325Z,98842.03
2022-10-29T00:25:58.188Z,98844.41
2022-10-29T00:28:26.338Z,98833.09
2022-10-29T00:30:53.893Z,98836.44
2022-10-29T00:33:22.253Z,98826.44
2022-10-29T00:35:56.792Z,98836.31
2022-10-29T00:38:24.419Z,98840.13
2022-10-29T00:40:53.899Z,98837.06
2022-10-29T00:43:23.559Z,98838.53
2022-10-29T00:45:52.518Z,98838.19
2022-10-29T00:48:20.562Z,98836.31
2022-10-29T00:50:48.996Z,98835.09
2022-10-29T00:53:20.189Z,98847.38
2022-10-29T00:55:47.636Z,98833.06
2022-10-29T00:58:17.210Z,98842.63
2022-10-29T01:00:44.871Z,98841.78
2022-10-29T01:03:12.303Z,98842.63
2022-10-29T01:05:40.897Z,98851.38
2022-10-29T01:08:08.324Z,98860.47
2022-10-29T01:10:47.012Z,98850.53
2022-10-29T01:13:33.485Z,98837.25
2022-10-29T01:16:11.200Z,98840.56
2022-10-29T01:18:47.966Z,98851.38
2022-10-29T01:21:41.040Z,98848.50
2022-10-29T01:24:50.843Z,98855.56
2022-10-29T01:27:47.792Z,98845.59
2022-10-29T01:30:26.361Z,98839.38
2022-10-29T01:33:06.471Z,98837.50
2022-10-29T01:35:45.392Z,98838.34
2022-10-29T01:38:24.020Z,98836.50
2022-10-29T01:41:00.400Z,98841.03
2022-10-29T01:43:34.894Z,98839.84
2022-10-29T01:46:08.512Z,98839.19
2022-10-29T01:48:45.186Z,98840.03
2022-10-29T01:51:19.270Z,98842.72
2022-10-29T01:53:48.589Z,98833.59
2022-10-29T01:56:18.365Z,98840.19
2022-10-29T01:58:53.306Z,98842.72
2022-10-29T02:01:39.394Z,98834.63
2022-10-29T02:04:22.820Z,98831.94
2022-10-29T02:06:59.647Z,98835.47
2022-10-29T02:09:34.976Z,98834.63
2022-10-29T02:12:16.387Z,98832.50
2022-10-29T02:14:48.599Z,98832.09
2022-10-29T02:17:15.940Z,98833.81
2022-10-29T02:19:45.261Z,98826.53
2022-10-29T02:22:12.628Z,98829.41
2022-10-29T02:24:39.951Z,98831.13
2022-10-29T02:27:07.251Z,98832.78
2022-10-29T02:29:36.172Z,98839.84
2022-10-29T02:32:06.156Z,98843.00
2022-10-29T02:34:35.806Z,98832.41
2022-10-29T02:37:06.887Z,98830.56
2022-10-29T02:39:35.280Z,98828.50
2022-10-29T02:42:04.691Z,98834.06
2022-10-29T02:44:35.747Z,98828.84
2022-10-29T02:47:06.527Z,98824.31
2022-10-29T02:49:36.916Z,98824.47
2022-10-29T02:52:06.102Z,98825.34
2022-10-29T02:54:36.288Z,98822.47
2022-10-29T02:57:04.221Z,98821.63
2022-10-29T02:59:33.096Z,98821.63
2022-10-29T03:02:03.456Z,98827.00
2022-10-29T03:04:34.546Z,98831.56
2022-10-29T03:07:03.741Z,98829.69
2022-10-29T03:09:34.781Z,98832.41
2022-10-29T03:12:05.125Z,98840.56
2022-10-29T03:14:32.478Z,98833.81
2022-10-29T03:17:03.185Z,98836.13
2022-10-29T03:19:33.507Z,98827.84
2022-10-29T03:22:01.440Z,98826.16
2022-10-29T03:24:32.985Z,98835.09
2022-10-29T03:27:03.402Z,98825.16
2022-10-29T03:29:30.774Z,98821.63
2022-10-29T03:32:03.209Z,98821.63
2022-10-29T03:34:30.583Z,98831.38
2022-10-29T03:36:59.340Z,98827.66
2022-10-29T03:39:26.669Z,98832.00
2022-10-29T03:41:55.485Z,98830.34
2022-10-29T03:44:22.974Z,98821.22
2022-10-29T03:46:50.382Z,98827.47
2022-10-29T03:49:18.522Z,98822.06
2022-10-29T03:51:48.647Z,98821.22
2022-10-29T03:54:19.310Z,98814.09
2022-10-29T03:56:47.644Z,98816.59
2022-10-29T03:59:19.156Z,98822.63
2022-10-29T04:01:47.594Z,98812.88
2022-10-29T04:04:18.117Z,98809.81
2022-10-29T04:06:46.913Z,98812.03
2022-10-29T04:09:17.076Z,98816.31
2022-10-29T04:11:47.612Z,98809.91
2022-10-29T04:14:17.829Z,98813.69
2022-10-29T04:16:45.676Z,98805.44
2022-10-29T04:19:13.856Z,98805.06
2022-10-29T04:30:10.137Z,98803.03
2022-10-29T04:32:37.564Z,98805.72
2022-10-29T04:35:05.748Z,98810.25
2022-10-29T04:37:35.929Z,98802.19
2022-10-29T04:40:07.167Z,98801.72
2022-10-29T04:42:36.491Z,98798.00
2022-10-29T04:45:04.361Z,98799.88
2022-10-29T04:47:36.974Z,98795.13
2022-10-29T04:50:05.138Z,98798.63
2022-10-29T04:52:32.797Z,98802.00
2022-10-29T04:55:02.164Z,98793.06
2022-10-29T04:57:32.432Z,98795.56
2022-10-29T05:00:01.694Z,98796.22
2022-10-29T05:02:32.038Z,98796.41
2022-10-29T05:05:03.408Z,98797.25
2022-10-29T05:07:33.935Z,98801.59
2022-10-29T05:10:01.286Z,98795.38
2022-10-29T05:12:30.660Z,98801.59
2022-10-29T05:15:01.786Z,98794.38
2022-10-29T05:17:30.104Z,98798.91
2022-10-29T05:20:00.806Z,98794.38
2022-10-29T05:22:31.072Z,98794.38
2022-10-29T05:24:58.881Z,98795.19
2022-10-29T05:27:33.711Z,98788.78
2022-10-29T05:30:01.126Z,98781.72
2022-10-29T05:32:29.153Z,98782.56
2022-10-29T05:35:01.103Z,98772.78
2022-10-29T05:37:28.551Z,98776.13
2022-10-29T05:39:56.593Z,98780.31
2022-10-29T05:42:27.646Z,98779.28
2022-10-29T05:44:58.769Z,98772.22
2022-10-29T05:47:26.872Z,98758.94
2022-10-29T05:49:57.581Z,98758.75
2022-10-29T05:52:27.969Z,98763.28
2022-10-29T05:54:56.272Z,98758.75
2022-10-29T05:57:27.819Z,98760.41
2022-10-29T05:59:56.159Z,98757.72
2022-10-29T06:02:26.750Z,98762.09
2022-10-29T06:04:55.405Z,98766.63
2022-10-29T06:07:24.797Z,98762.09
2022-10-29T06:09:56.530Z,98756.69
2022-10-29T06:12:24.464Z,98763.34
2022-10-29T06:14:54.821Z,98750.25
2022-10-29T06:17:24.352Z,98756.28
2022-10-29T06:19:53.696Z,98759.00
2022-10-29T06:22:24.193Z,98757.16
2022-10-29T06:24:53.712Z,98758.59
2022-10-29T06:27:22.592Z,98751.53
2022-10-29T06:29:52.897Z,98757.78
2022-10-29T06:32:24.244Z,98761.31
2022-10-29T06:34:52.885Z,98750.50
2022-10-29T06:37:22.636Z,98756.38
2022-10-29T06:39:54.170Z,98755.53
2022-10-29T06:42:22.236Z,98752.47
2022-10-29T06:44:52.535Z,98751.88
2022-10-29T06:47:22.901Z,98744.63
2022-10-29T06:49:51.460Z,98742.75
2022-10-29T06:52:21.872Z,98750.03
2022-10-29T06:54:50.648Z,98747.34
2022-10-29T06:57:22.016Z,98748.38
2022-10-29T06:59:49.868Z,98747.97
2022-10-29T07:02:20.840Z,98745.66
2022-10-29T07:04:52.017Z,98751.06
2022-10-29T07:07:20.619Z,98749.81
2022-10-29T07:09:48.025Z,98742.56
2022-10-29T07:12:15.489Z,98743.59
2022-10-29T07:14:44.381Z,98735.44
2022-10-29T07:17:11.788Z,98734.53
2022-10-29T07:19:39.185Z,98732.03
2022-10-29T07:22:09.628Z,98723.31
2022-10-29T07:24:37.256Z,98727.88
2022-10-29T07:27:10.466Z,98719.78
2022-10-29T07:29:37.957Z,98724.16
2022-10-29T07:32:08.106Z,98722.28
2022-10-29T07:34:36.191Z,98720.25
2022-10-29T07:37:05.095Z,98719.56
2022-10-29T07:39:36.865Z,98720.41
2022-10-29T07:42:05.474Z,98713.16
2022-10-29T07:44:35.741Z,98708.22
2022-10-29T07:47:08.188Z,98705.16
2022-10-29T07:49:35.620Z,98695.69
2022-10-29T07:52:04.881Z,98701.94
2022-10-29T07:54:35.005Z,98696.53
2022-10-29T07:57:03.583Z,98705.06
2022-10-29T07:59:33.947Z,98699.47
2022-10-29T08:02:04.323Z,98690.19
2022-10-29T08:04:34.473Z,98699.78
2022-10-29T08:07:02.215Z,98695.19
2022-10-29T08:09:31.202Z,98693.97
2022-10-29T08:11:59.097Z,98687.19
2022-10-29T08:14:33.092Z,98693.63
2022-10-29T08:17:01.668Z,98689.91
2022-10-29T08:19:33.611Z,98698.75
2022-10-29T08:22:01.750Z,98689.16
2022-10-29T08:24:32.086Z,98685.69
2022-10-29T08:27:00.921Z,98682.78
2022-10-29T08:29:29.049Z,98681.56
2022-10-29T08:32:00.803Z,98686.38
2022-10-29T08:34:31.504Z,98683.06
2022-10-29T08:37:02.274Z,98674.06
2022-10-29T08:39:32.707Z,98680.88
2022-10-29T08:42:14.183Z,98676.94
2022-10-29T08:45:05.457Z,98674.63
2022-10-29T08:47:43.629Z,98675.19
2022-10-29T08:50:24.135Z,98669.16
2022-10-29T08:53:19.522Z,98677.06
2022-10-29T08:55:41.573Z,98671.66
2022-10-29T08:58:19.108Z,98669.63
2022-10-29T09:00:49.710Z,98671.66
2022-10-29T09:03:17.189Z,98676.88
2022-10-29T09:05:54.176Z,98668.97
2022-10-29T09:08:37.420Z,98665.28
2022-10-29T09:11:20.023Z,98660.88
2022-10-29T09:13:59.633Z,98658.84
2022-10-29T09:19:27.219Z,98663.84
2022-10-29T09:22:02.312Z,98665.72
2022-10-29T09:24:37.965Z,98661.16
2022-10-29T09:27:14.862Z,98654.72
2022-10-29T09:30:00.585Z,98653.31
2022-10-29T09:32:33.444Z,98645.84
2022-10-29T09:35:03.167Z,98638.38
2022-10-29T09:37:34.227Z,98641.28
2022-10-29T09:40:07.387Z,98639.25
2022-10-29T09:42:39.023Z,98634.66
2022-10-29T09:45:16.339Z,98638.44
2022-10-29T09:47:53.148Z,98628.94
2022-10-29T09:50:30.006Z,98626.13
2022-10-29T09:52:58.331Z,98627.97
2022-10-29T09:55:29.422Z,98618.19
2022-10-29T09:57:58.330Z,98620.63
2022-10-29T10:00:27.796Z,98610.47
2022-10-29T10:03:02.849Z,98611.06
2022-10-29T10:05:31.971Z,98612.94
2022-10-29T10:08:11.792Z,98602.97
2022-10-29T10:10:51.535Z,98601.28
2022-10-29T10:13:21.774Z,98603.19
2022-10-29T10:15:56.858Z,98605.00
2022-10-29T10:18:38.488Z,98602.59
2022-10-29T10:21:09.011Z,98602.59
2022-10-29T10:23:42.632Z,98595.72
2022-10-29T10:26:34.133Z,98594.91
2022-10-29T10:29:13.014Z,98595.81
2022-10-29T10:31:49.715Z,98587.03
2022-10-29T10:34:21.433Z,98588.53
2022-10-29T10:36:51.868Z,98585.81
2022-10-29T10:39:37.646Z,98578.34
2022-10-29T10:42:16.213Z,98585.00
2022-10-29T10:44:48.347Z,98582.94
2022-10-29T10:47:18.856Z,98576.50
2022-10-29T10:49:46.540Z,98573.78
2022-10-29T10:52:18.579Z,98578.56
2022-10-29T10:54:54.300Z,98579.00
2022-10-29T10:57:32.327Z,98580.00
2022-10-29T11:00:04.188Z,98568.00
2022-10-29T11:02:43.375Z,98569.63
2022-10-29T11:05:17.208Z,98567.81
2022-10-29T11:07:51.105Z,98567.63
2022-10-29T11:10:20.833Z,98571.31
2022-10-29T11:12:50.685Z,98567.97
2022-10-29T11:15:28.890Z,98562.28
2022-10-29T11:18:01.844Z,98563.47
2022-10-29T11:20:34.757Z,98567.81
2022-10-29T11:23:20.906Z,98564.09
2022-10-29T11:25:54.749Z,98557.88
2022-10-29T11:28:29.553Z,98549.16
2022-10-29T11:31:06.096Z,98555.00
2022-10-29T11:33:42.255Z,98546.66
2022-10-29T11:36:17.287Z,98543.53
2022-10-29T11:38:50.288Z,98542.13
2022-10-29T11:41:26.766Z,98544.19
2022-10-29T11:44:02.553Z,98535.44
2022-10-29T11:46:38.305Z,98533.78
2022-10-29T11:49:23.400Z,98528.78
2022-10-29T11:51:59.966Z,98534.59
2022-10-29T11:54:42.570Z,98534.97
2022-10-29T11:57:19.474Z,98529.56
2022-10-29T12:00:04.825Z,98526.25
2022-10-29T12:03:20.346Z,98528.75
2022-10-29T12:05:59.754Z,98523.81
2022-10-29T12:08:42.496Z,98523.69
2022-10-29T12:11:18.585Z,98511.88
2022-10-29T12:13:58.591Z,98514.81
2022-10-29T12:16:41.137Z,98521.47
2022-10-29T12:19:19.110Z,98513.38
2022-10-29T12:21:54.580Z,98517.31
2022-10-29T12:24:49.032Z,98507.78
2022-10-29T12:27:26.353Z,98506.94
2022-10-29T12:30:00.662Z,98498.19
2022-10-29T12:32:36.396Z,98499.88
2022-10-29T12:35:12.827Z,98502.16
2022-10-29T12:37:46.585Z,98499.25
2022-10-29T12:40:21.748Z,98501.09
2022-10-29T12:42:50.522Z,98501.09
2022-10-29T12:45:36.925Z,98501.09
2022-10-29T12:48:16.756Z,98493.22
2022-10-29T12:50:51.905Z,98497.16
2022-10-29T12:53:28.899Z,98492.81
2022-10-29T12:55:57.973Z,98495.34
2022-10-29T12:58:49.685Z,98491.16
2022-10-29T13:02:13.452Z,98489.50
2022-10-29T13:04:34.644Z,98490.31
2022-10-29T13:10:33.117Z,98479.13
2022-10-29T13:13:04.133Z,98483.50
2022-10-29T13:15:36.063Z,98483.50
2022-10-29T13:18:17.328Z,98479.94
2022-10-29T13:20:49.325Z,98477.84
2022-10-29T13:23:33.704Z,98477.66
2022-10-29T13:26:02.198Z,98470.00
2022-10-29T13:28:53.212Z,98470.00
2022-10-29T13:31:49.985Z,98473.75
2022-10-29T13:34:55.706Z,98467.28
2022-10-29T13:37:59.438Z,98466.25
2022-10-29T13:41:00.659Z,98464.34
2022-10-29T13:43:30.701Z,98466.88
2022-10-29T13:46:45.204Z,98466.88
2022-10-29T13:49:18.218Z,98462.06
2022-10-29T13:51:54.837Z,98459.19
2022-10-29T13:54:39.225Z,98459.56
2022-10-29T13:57:16.413Z,98455.81
2022-10-29T13:59:50.376Z,98457.53
2022-10-29T14:02:30.140Z,98455.22
2022-10-29T14:05:04.802Z,98456.91
2022-10-29T14:07:41.308Z,98457.91
2022-10-29T14:10:19.650Z,98455.88
2022-10-29T14:12:51.880Z,98462.72
2022-10-29T14:15:21.212Z,98451.03
2022-10-29T14:17:49.085Z,98455.00
2022-10-29T14:20:25.410Z,98453.34
2022-10-29T14:22:53.414Z,98449.00
2022-10-29T14:25:38.345Z,98448.56
2022-10-29T14:28:10.554Z,98445.88
2022-10-29T14:30:39.482Z,98446.75
2022-10-29T14:33:23.283Z,98448.56
2022-10-29T14:35:51.829Z,98445.22
2022-10-29T14:38:23.379Z,98447.25
2022-10-29T14:40:50.821Z,98440.19
2022-10-29T14:43:24.335Z,98441.63
2022-10-29T14:45:54.884Z,98438.28
2022-10-29T14:48:22.453Z,98433.50
2022-10-29T14:50:51.405Z,98430.78
2022-10-29T14:53:27.792Z,98432.06
2022-10-29T14:55:56.329Z,98429.53
2022-10-29T14:58:27.917Z,98433.03
2022-10-29T15:01:03.243Z,98433.88
2022-10-29T15:03:33.978Z,98422.47
2022-10-29T15:06:12.496Z,98422.47
2022-10-29T15:08:40.948Z,98422.47
2022-10-29T15:11:32.860Z,98420.97
2022-10-29T15:14:01.045Z,98416.78
2022-10-29T15:16:31.429Z,98416.16
2022-10-29T15:19:00.270Z,98414.28
2022-10-29T15:21:30.862Z,98414.09
2022-10-29T15:24:03.221Z,98407.03
2022-10-29T15:26:31.575Z,98407.66
2022-10-29T15:28:58.984Z,98403.28
2022-10-29T15:31:33.949Z,98398.94
2022-10-29T15:34:09.467Z,98407.03
2022-10-29T15:36:49.059Z,98394.16
2022-10-29T15:39:22.755Z,98392.50
2022-10-29T15:41:51.126Z,98390.66
2022-10-29T15:44:33.974Z,98393.13
2022-10-29T15:47:18.845Z,98392.50
2022-10-29T15:49:46.228Z,98390.84
2022-10-29T15:52:18.578Z,98384.41
2022-10-29T15:54:46.673Z,98380.69
2022-10-29T15:57:15.357Z,98383.38
2022-10-29T15:59:42.797Z,98371.78
2022-10-29T16:02:14.187Z,98369.06
2022-10-29T16:04:41.737Z,98370.91
2022-10-29T16:07:11.867Z,98362.00
2022-10-29T16:09:43.485Z,98360.53
2022-10-29T16:12:11.546Z,98356.81
2022-10-29T16:14:38.906Z,98351.59
2022-10-29T16:17:14.265Z,98349.94
2022-10-29T16:19:41.699Z,98352.66
2022-10-29T16:22:13.582Z,98342.69
2022-10-29T16:24:41.237Z,98336.66
2022-10-29T16:27:13.895Z,98339.34
2022-10-29T16:29:41.340Z,98337.31
2022-10-29T16:32:09.799Z,98333.94
2022-10-29T16:34:38.808Z,98326.91
2022-10-29T16:37:06.301Z,98333.94
2022-10-29T16:39:33.700Z,98333.31
2022-10-29T16:42:01.114Z,98331.66
2022-10-29T16:44:28.685Z,98319.03
2022-10-29T16:46:56.166Z,98318.19
2022-10-29T16:49:23.625Z,98320.25
2022-10-29T16:51:52.585Z,98319.84
2022-10-29T16:54:19.980Z,98314.84
2022-10-29T16:56:47.400Z,98315.69
2022-10-29T16:59:14.724Z,98304.47
2022-10-29T17:01:42.140Z,98301.53
2022-10-29T17:04:12.019Z,98302.78
2022-10-29T17:06:43.837Z,98294.69
2022-10-29T17:09:14.060Z,98293.25
2022-10-29T17:11:41.396Z,98294.09
2022-10-29T17:14:11.827Z,98286.41
2022-10-29T17:16:40.681Z,98290.75
2022-10-29T17:19:10.055Z,98290.75
2022-10-29T17:21:41.006Z,98280.81
2022-10-29T17:24:09.791Z,98285.38
2022-10-29T17:26:41.134Z,98275.63
2022-10-29T17:29:09.714Z,98271.69
2022-10-29T17:31:40.091Z,98281.63
2022-10-29T17:34:10.402Z,98272.72
2022-10-29T17:36:38.527Z,98269.19
2022-10-29T17:39:06.194Z,98271.03
2022-10-29T17:41:33.618Z,98262.75
2022-10-29T17:44:02.497Z,98262.94
2022-10-29T17:46:29.951Z,98261.72
2022-10-29T17:48:57.588Z,98253.84
2022-10-29T17:51:26.437Z,98262.56
2022-10-29T17:53:58.448Z,98259.88
2022-10-29T17:56:26.660Z,98252.16
2022-10-29T17:58:57.265Z,98249.69
2022-10-29T18:01:28.734Z,98246.75
2022-10-29T18:04:00.419Z,98245.94
2022-10-29T18:06:28.203Z,98247.81
2022-10-29T18:08:55.602Z,98240.97
2022-10-29T18:11:25.613Z,98238.47
2022-10-29T18:13:56.732Z,98237.84
2022-10-29T18:16:30.054Z,98234.31
2022-10-29T18:19:03.156Z,98231.41
2022-10-29T18:21:31.562Z,98226.84
2022-10-29T18:23:59.003Z,98225.81
2022-10-29T18:26:28.187Z,98224.13
2022-10-29T18:28:56.213Z,98225.19
2022-10-29T18:31:26.093Z,98216.91
2022-10-29T18:33:55.655Z,98215.00
2022-10-29T18:36:23.268Z,98213.78
2022-10-29T18:38:53.700Z,98215.66
2022-10-29T18:41:23.475Z,98212.31
2022-10-29T18:43:51.888Z,98208.19
2022-10-29T18:46:22.560Z,98202.63
2022-10-29T18:48:55.041Z,98203.66
2022-10-29T18:51:24.612Z,98201.59
2022-10-29T18:53:52.807Z,98197.03
2022-10-29T18:56:22.368Z,98193.75
2022-10-29T18:58:50.495Z,98184.19
2022-10-29T19:01:20.435Z,98186.09
2022-10-29T19:03:52.757Z,98185.47
2022-10-29T19:06:23.244Z,98179.84
2022-10-29T19:08:51.061Z,98181.31
2022-10-29T19:11:20.810Z,98180.88
2022-10-29T19:13:51.032Z,98178.84
2022-10-29T19:16:20.148Z,98169.69
2022-10-29T19:18:54.735Z,98167.41
2022-10-29T19:21:23.841Z,98159.53
2022-10-29T19:23:54.343Z,98159.53
2022-10-29T19:26:22.507Z,98153.94
2022-10-29T19:28:50.006Z,98161.41
2022-10-29T19:31:19.532Z,98148.53
2022-10-29T19:33:48.573Z,98148.28
2022-10-29T19:36:19.992Z,98150.19
2022-10-29T19:38:49.165Z,98139.38
2022-10-29T19:41:18.458Z,98141.22
2022-10-29T19:43:47.902Z,98150.59
2022-10-29T19:46:18.072Z,98143.72
2022-10-29T19:48:49.719Z,98138.34
2022-10-29T19:51:19.928Z,98129.00
2022-10-29T19:53:48.955Z,98133.56
2022-10-29T19:56:17.483Z,98127.75
2022-10-29T19:58:45.236Z,98117.78
2022-10-29T20:01:18.813Z,98115.06
2022-10-29T20:03:46.960Z,98119.66
2022-10-29T20:06:15.579Z,98118.63
2022-10-29T20:08:44.192Z,98115.91
2022-10-29T20:11:17.486Z,98111.56
2022-10-29T20:13:44.856Z,98113.63
2022-10-29T20:16:16.946Z,98111.75
2022-10-29T20:18:44.891Z,98113.22
2022-10-29T20:21:13.965Z,98114.25
2022-10-29T20:23:44.317Z,98115.91
2022-10-29T20:26:15.162Z,98110.94
2022-10-29T20:28:42.723Z,98108.63
2022-10-29T20:31:12.001Z,98104.50
2022-10-29T20:33:49.380Z,98105.13
2022-10-29T20:36:16.952Z,98097.41
2022-10-29T20:38:48.347Z,98100.75
2022-10-29T20:41:17.587Z,98092.22
2022-10-29T20:43:45.024Z,98093.06
2022-10-29T20:46:12.472Z,98094.94
2022-10-29T20:48:40.618Z,98094.09
2022-10-29T20:51:09.800Z,98091.38
2022-10-29T20:53:40.542Z,98087.25
2022-10-29T20:56:13.206Z,98091.19
2022-10-29T20:58:45.918Z,98088.91
2022-10-29T21:01:14.821Z,98080.41
2022-10-29T21:03:42.953Z,98081.22
2022-10-29T21:06:15.690Z,98081.44
2022-10-29T21:08:46.941Z,98088.06
2022-10-29T21:11:16.579Z,98081.00
2022-10-29T21:13:48.184Z,98082.03
2022-10-29T21:16:17.628Z,98077.50
2022-10-29T21:18:46.561Z,98068.53
2022-10-29T21:21:14.177Z,98069.81
2022-10-29T21:23:42.028Z,98074.56
2022-10-29T21:26:11.951Z,98067.28
2022-10-29T21:28:39.297Z,98072.91
2022-10-29T21:31:08.247Z,98071.03
2022-10-29T21:33:35.593Z,98066.22
2022-10-29T21:36:03.474Z,98062.94
2022-10-29T21:38:30.826Z,98057.97
2022-10-29T21:40:58.149Z,98057.72
2022-10-29T21:43:25.530Z,98047.34
2022-10-29T21:45:54.706Z,98056.69
2022-10-29T21:48:27.905Z,98056.06
2022-10-29T21:51:00.285Z,98058.34
2022-10-29T21:53:27.715Z,98051.91
2022-10-29T21:55:56.915Z,98050.44
2022-10-29T21:58:24.260Z,98042.13
2022-10-29T22:00:52.399Z,98030.28
2022-10-29T22:03:22.018Z,98022.59
2022-10-29T22:05:53.347Z,98029.88
2022-10-29T22:08:24.035Z,98031.13
2022-10-29T22:10:52.532Z,98033.59
2022-10-29T22:13:21.607Z,98035.50
2022-10-29T22:15:53.286Z,98027.38
2022-10-29T22:18:22.243Z,98028.84
2022-10-29T22:21:03.215Z,98026.75
2022-10-29T22:23:30.606Z,98017.81
2022-10-29T22:25:57.963Z,98020.75
2022-10-29T22:28:25.430Z,98011.38
2022-10-29T22:30:58.065Z,98003.28
2022-10-29T22:33:25.448Z,98015.13
2022-10-29T22:35:54.321Z,98006.41
2022-10-29T22:38:21.868Z,97996.19
2022-10-29T22:40:49.277Z,97992.69
2022-10-29T22:43:18.847Z,97993.28
2022-10-29T22:45:48.135Z,97979.19
2022-10-29T22:48:18.776Z,97984.59
2022-10-29T22:50:49.230Z,97981.88
2022-10-29T22:53:20.606Z,97979.19
2022-10-29T22:55:52.072Z,97972.09
2022-10-29T22:58:19.616Z,97965.84
2022-10-29T23:00:49.651Z,97959.41
2022-10-29T23:03:20.079Z,97959.84
2022-10-29T23:05:56.666Z,97957.75
2022-10-29T23:08:26.006Z,97958.59
2022-10-29T23:10:53.631Z,97954.88
2022-10-29T23:13:21.157Z,97958.19
2022-10-29T23:15:49.018Z,97946.13
2022-10-29T23:18:16.428Z,97942.59
2022-10-29T23:20:46.796Z,97951.31
2022-10-29T23:23:14.684Z,97936.16
2022-10-29T23:25:47.822Z,97934.09
2022-10-29T23:28:15.149Z,97932.00
2022-10-29T23:30:43.870Z,97930.94
2022-10-29T23:33:15.390Z,97930.13
2022-10-29T23:35:44.078Z,97922.19
2022-10-29T23:38:15.688Z,97915.78
2022-10-29T23:40:44.483Z,97911.63
2022-10-29T23:43:15.971Z,97911.41
2022-10-29T23:45:43.571Z,97916.78
2022-10-29T23:48:13.089Z,97908.69
2022-10-29T23:50:43.511Z,97906.84
2022-10-29T23:53:11.992Z,97900.19
2022-10-29T23:55:43.114Z,97899.13
2022-10-29T23:58:13.095Z,97897.47
